Peruwelz, Belgium
Current Conditions -  °F | °C
As of 5:25 PM on Thursday 23 Oct 2014 (Local Time) from EBCV Reporting Station
Overcast Overcast  
Wind Chill: 14°   Ceiling: 4800
Heat Index: 14°   Visibility: 6mi
Dew Point: 10°   Wind: 6mph
Humidity: 77%   Direction: 220°SW
Pressure: 30.18"   Gusts: NA
Location:  50.51°N, 3.59°E
Report Text: EBCV 231525Z AUTO 22005KT 9999 OVC048/// 14/10 Q1022 BLU
Loading
Personal Weather Stations






























Interactive Weather Map
Tropical Storm Tracking
New forecast layout! Learn more

10-Day Weather Forecast

Advertisements
Track Severe Weather on mobile